createdAt,value
2022-11-03T00:01:55.837Z,65.29
2022-11-03T00:04:22.526Z,65.95
2022-11-03T00:06:49.407Z,66.42
2022-11-03T00:09:16.061Z,65.74
2022-11-03T00:11:42.708Z,65.29
2022-11-03T00:14:09.493Z,64.81
2022-11-03T00:16:36.289Z,64.88
2022-11-03T00:19:02.933Z,65.31
2022-11-03T00:21:29.594Z,65.49
2022-11-03T00:23:56.438Z,65.16
2022-11-03T00:26:23.483Z,65.38
2022-11-03T00:28:50.123Z,65.07
2022-11-03T00:31:16.891Z,64.98
2022-11-03T00:33:43.539Z,65.30
2022-11-03T00:36:10.161Z,65.14
2022-11-03T00:38:36.803Z,64.98
2022-11-03T00:41:03.402Z,65.33
2022-11-03T00:43:30.247Z,65.45
2022-11-03T00:45:56.868Z,65.21
2022-11-03T00:48:23.555Z,65.14
2022-11-03T00:50:50.193Z,65.03
2022-11-03T00:53:16.822Z,64.70
2022-11-03T00:55:43.565Z,64.65
2022-11-03T00:58:10.204Z,64.65
2022-11-03T01:00:36.908Z,64.56
2022-11-03T01:03:03.785Z,64.94
2022-11-03T01:05:30.526Z,65.13
2022-11-03T01:07:57.140Z,65.46
2022-11-03T01:10:23.789Z,65.14
2022-11-03T01:12:50.463Z,65.36
2022-11-03T01:15:17.082Z,65.26
2022-11-03T01:17:43.718Z,65.03
2022-11-03T01:20:10.364Z,64.97
2022-11-03T01:22:37.120Z,65.50
2022-11-03T01:25:03.826Z,65.12
2022-11-03T01:27:30.449Z,65.17
2022-11-03T01:29:57.094Z,65.18
2022-11-03T01:32:23.708Z,65.31
2022-11-03T01:34:50.327Z,65.51
2022-11-03T01:37:17.183Z,65.82
2022-11-03T01:39:43.826Z,65.36
2022-11-03T01:42:10.519Z,65.09
2022-11-03T01:44:37.160Z,65.18
2022-11-03T01:47:03.761Z,65.20
2022-11-03T01:49:30.406Z,65.04
2022-11-03T01:51:57.189Z,65.36
2022-11-03T01:54:23.797Z,65.73
2022-11-03T01:56:50.403Z,66.04
2022-11-03T01:59:17.109Z,66.75
2022-11-03T02:01:43.900Z,67.17
2022-11-03T02:04:10.612Z,67.86
2022-11-03T02:06:37.264Z,67.67
2022-11-03T02:09:03.878Z,67.72
2022-11-03T02:11:30.512Z,67.90
2022-11-03T02:13:57.228Z,66.81
2022-11-03T02:16:23.944Z,67.60
2022-11-03T02:18:50.572Z,67.23
2022-11-03T02:21:17.205Z,67.02
2022-11-03T02:23:43.858Z,66.99
2022-11-03T02:26:10.468Z,67.82
2022-11-03T02:28:37.112Z,68.85
2022-11-03T02:31:03.712Z,70.25
2022-11-03T02:33:30.325Z,69.68
2022-11-03T02:35:57.050Z,69.41
2022-11-03T02:38:23.686Z,69.20
2022-11-03T02:40:50.322Z,68.86
2022-11-03T02:43:17.023Z,68.73
2022-11-03T02:45:43.704Z,68.86
2022-11-03T02:48:10.375Z,68.80
2022-11-03T02:50:37.012Z,68.38
2022-11-03T02:53:03.834Z,68.11
2022-11-03T02:55:30.667Z,67.85
2022-11-03T02:57:57.317Z,69.09
2022-11-03T03:00:24.215Z,69.17
2022-11-03T03:02:50.895Z,70.03
2022-11-03T03:05:17.537Z,70.49
2022-11-03T03:07:44.129Z,71.43
2022-11-03T03:10:10.777Z,71.66
2022-11-03T03:12:37.756Z,70.71
2022-11-03T03:15:04.543Z,69.61
2022-11-03T03:17:31.224Z,69.09
2022-11-03T03:19:57.912Z,70.16
2022-11-03T03:22:24.562Z,71.50
2022-11-03T03:24:51.168Z,69.98
2022-11-03T03:27:18.035Z,70.52
2022-11-03T03:29:44.664Z,69.93
2022-11-03T03:32:11.500Z,70.44
2022-11-03T03:34:38.148Z,70.72
2022-11-03T03:37:04.782Z,71.16
2022-11-03T03:39:31.423Z,70.92
2022-11-03T03:41:58.126Z,71.09
2022-11-03T03:44:24.801Z,70.54
2022-11-03T03:46:51.563Z,71.03
2022-11-03T03:49:18.160Z,70.33
2022-11-03T03:51:44.827Z,70.36
2022-11-03T03:54:11.470Z,69.98
2022-11-03T03:56:38.189Z,70.13
2022-11-03T03:59:04.793Z,69.54
2022-11-03T04:01:31.527Z,68.98
2022-11-03T04:03:58.251Z,67.87
2022-11-03T04:06:24.905Z,66.70
2022-11-03T04:08:51.608Z,65.40
2022-11-03T04:11:18.234Z,65.46
2022-11-03T04:13:44.866Z,65.21
2022-11-03T04:16:11.471Z,64.80
2022-11-03T04:18:38.153Z,64.89
2022-11-03T04:21:04.770Z,65.27
2022-11-03T04:23:32.083Z,65.62
2022-11-03T04:25:58.776Z,65.15
2022-11-03T04:28:25.396Z,64.99
2022-11-03T04:30:54.704Z,64.58
2022-11-03T04:33:24.493Z,64.20
2022-11-03T04:35:51.128Z,64.27
2022-11-03T04:38:17.751Z,64.18
2022-11-03T04:40:44.444Z,64.25
2022-11-03T04:43:11.241Z,64.73
2022-11-03T04:45:37.886Z,64.89
2022-11-03T04:48:04.538Z,64.75
2022-11-03T04:50:31.159Z,64.92
2022-11-03T04:52:57.812Z,65.31
2022-11-03T04:55:24.460Z,64.61
2022-11-03T04:57:51.105Z,64.18
2022-11-03T05:00:17.743Z,63.85
2022-11-03T05:02:44.396Z,63.56
2022-11-03T05:05:11.037Z,63.79
2022-11-03T05:07:37.692Z,64.05
2022-11-03T05:10:04.327Z,63.86
2022-11-03T05:12:30.972Z,64.07
2022-11-03T05:14:59.050Z,63.74
2022-11-03T05:17:25.901Z,64.40
2022-11-03T05:19:52.559Z,63.83
2022-11-03T05:22:19.188Z,64.20
2022-11-03T05:24:45.843Z,63.83
2022-11-03T05:27:12.515Z,63.63
2022-11-03T05:29:39.181Z,63.56
2022-11-03T05:32:05.828Z,63.35
2022-11-03T05:34:32.491Z,63.67
2022-11-03T05:36:59.123Z,64.18
2022-11-03T05:39:25.746Z,64.33
2022-11-03T05:41:52.416Z,63.87
2022-11-03T05:44:19.155Z,64.10
2022-11-03T05:46:45.787Z,63.80
2022-11-03T05:49:12.431Z,64.24
2022-11-03T05:51:39.774Z,64.55
2022-11-03T05:54:06.422Z,64.13
2022-11-03T05:56:33.040Z,64.15
2022-11-03T05:58:59.712Z,64.11
2022-11-03T06:01:26.485Z,63.65
2022-11-03T06:03:53.197Z,64.27
2022-11-03T06:06:19.850Z,64.14
2022-11-03T06:08:46.510Z,63.79
2022-11-03T06:11:13.158Z,63.45
2022-11-03T06:13:39.826Z,63.25
2022-11-03T06:16:06.482Z,63.20
2022-11-03T06:18:33.173Z,63.42
2022-11-03T06:20:59.890Z,63.43
2022-11-03T06:23:26.564Z,63.45
2022-11-03T06:25:53.198Z,63.37
2022-11-03T06:28:19.823Z,63.41
2022-11-03T06:30:46.502Z,63.14
2022-11-03T06:33:13.127Z,63.11
2022-11-03T06:35:39.996Z,62.66
2022-11-03T06:38:06.633Z,62.12
2022-11-03T06:40:33.274Z,62.35
2022-11-03T06:42:59.950Z,62.47
2022-11-03T06:45:26.625Z,62.32
2022-11-03T06:47:53.280Z,62.12
2022-11-03T06:50:21.043Z,62.36
2022-11-03T06:55:16.811Z,62.51
2022-11-03T06:57:43.880Z,62.48
2022-11-03T07:00:33.155Z,62.35
2022-11-03T07:02:57.188Z,62.36
2022-11-03T07:05:23.862Z,62.15
2022-11-03T07:07:50.497Z,61.89
2022-11-03T07:10:17.135Z,61.89
2022-11-03T07:12:43.771Z,61.46
2022-11-03T07:15:10.412Z,60.72
2022-11-03T07:17:37.033Z,60.50
2022-11-03T07:20:03.675Z,60.51
2022-11-03T07:22:30.311Z,60.70
2022-11-03T07:24:56.958Z,60.90
2022-11-03T07:27:23.615Z,60.88
2022-11-03T07:29:50.290Z,60.66
2022-11-03T07:32:16.916Z,60.96
2022-11-03T07:34:43.584Z,60.77
2022-11-03T07:39:42.142Z,60.59
2022-11-03T07:42:08.789Z,60.48
2022-11-03T07:44:35.443Z,60.35
2022-11-03T07:47:02.125Z,59.39
2022-11-03T07:49:28.821Z,59.59
2022-11-03T07:51:55.512Z,60.21
2022-11-03T07:54:22.146Z,59.19
2022-11-03T07:56:48.806Z,59.14
2022-11-03T07:59:15.734Z,60.20
2022-11-03T08:01:42.520Z,60.08
2022-11-03T08:04:09.318Z,59.85
2022-11-03T08:06:35.999Z,58.52
2022-11-03T08:09:02.841Z,58.07
2022-11-03T08:11:30.023Z,57.31
2022-11-03T08:13:56.822Z,56.75
2022-11-03T08:16:23.488Z,57.16
2022-11-03T08:18:50.157Z,56.00
2022-11-03T08:21:16.854Z,55.60
2022-11-03T08:23:47.376Z,55.37
2022-11-03T08:26:14.575Z,54.78
2022-11-03T08:28:41.348Z,54.45
2022-11-03T08:31:12.250Z,53.84
2022-11-03T08:33:39.819Z,54.82
2022-11-03T08:36:06.459Z,55.44
2022-11-03T08:38:33.124Z,56.69
2022-11-03T08:40:59.822Z,57.39
2022-11-03T08:43:26.480Z,56.78
2022-11-03T08:45:53.094Z,56.49
2022-11-03T08:48:19.786Z,54.63
2022-11-03T08:53:30.489Z,53.78
2022-11-03T08:55:57.166Z,54.99
2022-11-03T08:58:23.812Z,53.15
2022-11-03T09:00:50.676Z,54.92
2022-11-03T09:03:17.466Z,56.41
2022-11-03T09:05:44.117Z,55.64
2022-11-03T09:10:57.424Z,56.19
2022-11-03T09:13:24.114Z,55.33
2022-11-03T09:15:50.758Z,55.61
2022-11-03T09:18:17.420Z,53.72
2022-11-03T09:20:44.080Z,54.92
2022-11-03T09:23:10.869Z,53.69
2022-11-03T09:25:37.516Z,54.39
2022-11-03T09:28:04.344Z,53.61
2022-11-03T09:30:31.137Z,52.99
2022-11-03T09:32:57.803Z,51.32
2022-11-03T09:35:24.448Z,52.01
2022-11-03T09:37:51.188Z,51.84
2022-11-03T09:40:17.888Z,52.33
2022-11-03T09:42:44.581Z,52.67
2022-11-03T09:45:11.251Z,52.79
2022-11-03T09:47:37.987Z,52.94
2022-11-03T09:50:04.624Z,52.57
2022-11-03T09:52:31.278Z,53.08
2022-11-03T09:54:57.924Z,52.88
2022-11-03T09:57:24.611Z,51.53
2022-11-03T09:59:51.265Z,50.07
2022-11-03T10:02:18.059Z,52.00
2022-11-03T10:04:44.755Z,49.79
2022-11-03T10:07:13.405Z,50.62
2022-11-03T10:09:40.111Z,50.35
2022-11-03T10:12:06.793Z,49.98
2022-11-03T10:14:33.529Z,50.39
2022-11-03T10:17:00.253Z,50.95
2022-11-03T10:19:27.018Z,50.13
2022-11-03T10:21:53.658Z,49.92
2022-11-03T10:24:20.329Z,50.18
2022-11-03T10:26:46.990Z,49.23
2022-11-03T10:29:13.649Z,51.38
2022-11-03T10:31:40.385Z,52.06
2022-11-03T10:34:07.015Z,52.53
2022-11-03T10:36:33.694Z,52.52
2022-11-03T10:39:00.356Z,51.11
2022-11-03T10:41:27.457Z,50.87
2022-11-03T10:43:54.116Z,50.16
2022-11-03T10:46:44.557Z,52.07
2022-11-03T10:51:38.964Z,52.81
2022-11-03T10:54:05.653Z,51.70
2022-11-03T10:56:32.305Z,51.82
2022-11-03T11:01:30.831Z,51.31
2022-11-03T11:03:57.643Z,54.12
2022-11-03T11:06:24.320Z,52.85
2022-11-03T11:08:52.887Z,51.23
2022-11-03T11:11:21.593Z,50.03
2022-11-03T11:13:48.232Z,51.24
2022-11-03T11:16:14.958Z,49.74
2022-11-03T11:18:41.612Z,49.39
2022-11-03T11:21:08.398Z,49.68
2022-11-03T11:23:35.060Z,49.96
2022-11-03T11:26:01.726Z,49.87
2022-11-03T11:28:28.441Z,49.15
2022-11-03T11:30:55.120Z,50.35
2022-11-03T11:33:21.826Z,51.55
2022-11-03T11:35:48.535Z,51.89
2022-11-03T11:38:15.230Z,51.54
2022-11-03T11:40:41.878Z,52.59
2022-11-03T11:43:08.796Z,52.93
2022-11-03T11:45:35.632Z,52.19
2022-11-03T11:48:02.260Z,51.89
2022-11-03T11:50:28.961Z,50.30
2022-11-03T11:52:55.594Z,50.65
2022-11-03T11:55:22.361Z,50.32
2022-11-03T11:57:49.267Z,50.75
2022-11-03T12:00:15.950Z,50.90
2022-11-03T12:02:42.604Z,51.36
2022-11-03T12:05:09.291Z,51.20
2022-11-03T12:10:20.109Z,51.88
2022-11-03T12:12:46.734Z,50.81
2022-11-03T12:15:13.393Z,51.54
2022-11-03T12:17:40.045Z,52.60
2022-11-03T12:20:06.713Z,50.93
2022-11-03T12:22:33.378Z,51.66
2022-11-03T12:25:00.047Z,51.57
2022-11-03T12:27:26.676Z,51.04
2022-11-03T12:29:53.360Z,51.15
2022-11-03T12:32:33.441Z,51.03
2022-11-03T12:35:01.045Z,49.60
2022-11-03T12:37:27.726Z,48.93
2022-11-03T12:39:54.428Z,49.95
2022-11-03T12:42:21.235Z,50.35
2022-11-03T12:44:48.097Z,49.71
2022-11-03T12:47:14.990Z,51.66
2022-11-03T12:49:41.657Z,52.07
2022-11-03T12:52:08.691Z,51.86
2022-11-03T12:54:35.562Z,50.54
2022-11-03T12:57:02.308Z,49.82
2022-11-03T12:59:28.972Z,50.44
2022-11-03T13:01:55.784Z,50.59
2022-11-03T13:04:22.514Z,51.44
2022-11-03T13:06:49.191Z,52.42
2022-11-03T13:09:15.835Z,52.45
2022-11-03T13:11:42.506Z,52.91
2022-11-03T13:14:09.182Z,52.91
2022-11-03T13:16:35.869Z,53.27
2022-11-03T13:19:02.517Z,53.35
2022-11-03T13:21:29.179Z,54.15
2022-11-03T13:23:55.858Z,53.49
2022-11-03T13:26:22.562Z,53.14
2022-11-03T13:28:49.719Z,53.79
2022-11-03T13:31:16.429Z,54.76
2022-11-03T13:33:43.101Z,54.70
2022-11-03T13:36:09.839Z,55.41
2022-11-03T13:38:36.599Z,55.88
2022-11-03T13:41:08.427Z,54.94
2022-11-03T13:43:35.605Z,55.71
2022-11-03T13:46:02.356Z,55.45
2022-11-03T13:51:15.977Z,55.16
2022-11-03T13:56:29.877Z,55.09
2022-11-03T14:01:43.874Z,54.42
2022-11-03T14:06:57.295Z,55.19
2022-11-03T14:09:24.021Z,55.33
2022-11-03T14:11:50.668Z,55.14
2022-11-03T14:14:17.332Z,54.78
2022-11-03T14:16:44.094Z,54.30
2022-11-03T14:19:10.786Z,53.71
2022-11-03T14:21:37.592Z,53.19
2022-11-03T14:24:04.270Z,53.46
2022-11-03T14:26:43.411Z,52.70
2022-11-03T14:29:10.205Z,53.07
2022-11-03T14:31:36.897Z,53.49
2022-11-03T14:34:03.559Z,53.25
2022-11-03T14:36:30.199Z,53.73
2022-11-03T14:38:56.860Z,53.65
2022-11-03T14:41:23.496Z,53.80
2022-11-03T14:43:50.124Z,53.16
2022-11-03T14:46:16.832Z,53.70
2022-11-03T14:48:43.615Z,52.78
2022-11-03T14:51:10.269Z,52.86
2022-11-03T14:53:36.906Z,52.66
2022-11-03T14:56:03.538Z,52.51
2022-11-03T14:58:30.192Z,52.98
2022-11-03T15:00:56.966Z,53.20
2022-11-03T15:03:23.679Z,53.39
2022-11-03T15:05:50.372Z,53.56
2022-11-03T15:08:17.125Z,53.45
2022-11-03T15:10:43.735Z,53.78
2022-11-03T15:13:10.410Z,54.18
2022-11-03T15:15:37.058Z,54.34
2022-11-03T15:20:48.010Z,53.83
2022-11-03T15:26:01.341Z,53.39
2022-11-03T15:28:28.003Z,54.02
2022-11-03T15:30:54.629Z,53.75
2022-11-03T15:33:21.274Z,54.18
2022-11-03T15:35:47.941Z,54.31
2022-11-03T15:38:14.559Z,53.91
2022-11-03T15:40:41.216Z,54.42
2022-11-03T15:43:07.854Z,54.41
2022-11-03T15:45:34.536Z,54.11
2022-11-03T15:48:01.155Z,54.58
2022-11-03T15:50:27.779Z,54.83
2022-11-03T15:52:54.427Z,54.91
2022-11-03T15:55:21.146Z,54.90
2022-11-03T15:57:47.824Z,55.18
2022-11-03T16:00:14.461Z,55.29
2022-11-03T16:02:42.033Z,54.99
2022-11-03T16:05:09.086Z,54.79
2022-11-03T16:07:35.714Z,55.55
2022-11-03T16:10:02.434Z,55.68
2022-11-03T16:12:30.045Z,55.54
2022-11-03T16:14:56.781Z,55.96
2022-11-03T16:17:23.382Z,56.04
2022-11-03T16:19:50.019Z,55.75
2022-11-03T16:22:16.682Z,55.96
2022-11-03T16:24:43.292Z,56.26
2022-11-03T16:27:10.036Z,56.33
2022-11-03T16:29:36.701Z,55.94
2022-11-03T16:32:03.352Z,56.82
2022-11-03T16:34:29.995Z,56.90
2022-11-03T16:36:56.781Z,56.65
2022-11-03T16:39:23.412Z,56.75
2022-11-03T16:41:50.373Z,56.67
2022-11-03T16:44:17.014Z,56.76
2022-11-03T16:46:43.692Z,56.60
2022-11-03T16:49:10.422Z,56.83
2022-11-03T16:51:37.046Z,56.95
2022-11-03T16:54:03.692Z,57.05
2022-11-03T16:56:30.337Z,56.91
2022-11-03T16:58:57.107Z,57.79
2022-11-03T17:01:23.889Z,58.22
2022-11-03T17:03:50.603Z,58.55
2022-11-03T17:06:17.358Z,58.01
2022-11-03T17:08:52.915Z,58.24
2022-11-03T17:11:20.258Z,57.91
2022-11-03T17:13:46.941Z,58.12
2022-11-03T17:16:13.744Z,58.15
2022-11-03T17:21:24.717Z,58.08
2022-11-03T17:23:51.376Z,58.21
2022-11-03T17:26:18.126Z,58.09
2022-11-03T17:28:44.749Z,58.13
2022-11-03T17:31:11.412Z,58.22
2022-11-03T17:33:38.057Z,58.32
2022-11-03T17:36:04.698Z,58.10
2022-11-03T17:38:31.588Z,58.83
2022-11-03T17:40:58.230Z,58.82
2022-11-03T17:43:24.878Z,58.93
2022-11-03T17:45:51.476Z,59.22
2022-11-03T17:48:18.136Z,59.19
2022-11-03T17:50:44.800Z,59.26
2022-11-03T17:53:11.496Z,59.57
2022-11-03T17:55:38.134Z,59.27
2022-11-03T17:58:04.847Z,59.24
2022-11-03T18:00:31.611Z,59.40
2022-11-03T18:02:58.255Z,59.17
2022-11-03T18:05:24.922Z,59.11
2022-11-03T18:07:51.568Z,58.86
2022-11-03T18:10:18.220Z,59.16
2022-11-03T18:12:44.987Z,59.55
2022-11-03T18:15:11.790Z,59.77
2022-11-03T18:17:38.526Z,59.87
2022-11-03T18:20:05.171Z,60.12
2022-11-03T18:22:31.832Z,59.83
2022-11-03T18:24:58.482Z,59.66
2022-11-03T18:27:25.485Z,59.99
2022-11-03T18:29:52.411Z,60.27
2022-11-03T18:32:19.058Z,60.09
2022-11-03T18:34:45.725Z,60.00
2022-11-03T18:37:12.571Z,60.36
2022-11-03T18:39:39.225Z,60.26
2022-11-03T18:42:05.888Z,60.95
2022-11-03T18:44:32.560Z,61.03
2022-11-03T18:46:59.194Z,61.32
2022-11-03T18:49:25.832Z,61.43
2022-11-03T18:51:53.667Z,61.36
2022-11-03T18:54:23.222Z,61.40
2022-11-03T18:56:49.863Z,61.06
2022-11-03T18:59:16.495Z,61.23
2022-11-03T19:01:43.351Z,61.19
2022-11-03T19:04:10.125Z,61.00
2022-11-03T19:06:36.876Z,62.05
2022-11-03T19:09:03.505Z,62.03
2022-11-03T19:11:30.175Z,62.06
2022-11-03T19:13:56.815Z,61.86
2022-11-03T19:16:23.511Z,61.88
2022-11-03T19:18:50.190Z,61.88
2022-11-03T19:21:16.919Z,62.12
2022-11-03T19:23:47.779Z,61.70
2022-11-03T19:26:15.183Z,61.51
2022-11-03T19:28:41.871Z,61.18
2022-11-03T19:31:08.505Z,61.44
2022-11-03T19:33:35.140Z,61.43
2022-11-03T19:36:01.776Z,61.22
2022-11-03T19:38:28.446Z,61.24
2022-11-03T19:40:55.172Z,61.27
2022-11-03T19:43:21.867Z,61.23
2022-11-03T19:45:48.728Z,61.33
2022-11-03T19:48:31.096Z,61.72
2022-11-03T19:50:58.156Z,61.79
2022-11-03T19:53:24.795Z,62.21
2022-11-03T19:55:51.487Z,62.40
2022-11-03T19:58:18.110Z,61.91
2022-11-03T20:00:44.830Z,61.86
2022-11-03T20:03:11.660Z,62.31
2022-11-03T20:05:38.322Z,62.64
2022-11-03T20:08:05.328Z,62.33
2022-11-03T20:10:35.811Z,61.96
2022-11-03T20:13:02.923Z,62.04
2022-11-03T20:15:29.605Z,62.29
2022-11-03T20:17:56.259Z,62.42
2022-11-03T20:20:22.927Z,62.11
2022-11-03T20:22:49.557Z,62.27
2022-11-03T20:25:16.218Z,62.75
2022-11-03T20:27:42.860Z,62.49
2022-11-03T20:30:09.572Z,62.96
2022-11-03T20:32:36.274Z,63.57
2022-11-03T20:35:02.896Z,63.26
2022-11-03T20:37:29.641Z,62.74
2022-11-03T20:39:56.342Z,62.94
2022-11-03T20:42:22.981Z,62.79
2022-11-03T20:44:49.595Z,63.28
2022-11-03T20:47:16.315Z,62.69
2022-11-03T20:49:43.050Z,63.11
2022-11-03T20:52:09.783Z,63.85
2022-11-03T20:54:36.557Z,63.91
2022-11-03T20:57:03.249Z,63.86
2022-11-03T20:59:32.081Z,63.51
2022-11-03T21:02:01.299Z,63.36
2022-11-03T21:04:28.120Z,63.93
2022-11-03T21:06:54.799Z,64.95
2022-11-03T21:09:21.455Z,64.65
2022-11-03T21:11:48.122Z,64.25
2022-11-03T21:14:14.781Z,63.94
2022-11-03T21:16:41.531Z,63.51
2022-11-03T21:19:08.213Z,63.56
2022-11-03T21:21:34.840Z,63.37
2022-11-03T21:24:01.675Z,62.98
2022-11-03T21:26:28.321Z,63.05
2022-11-03T21:28:54.974Z,63.53
2022-11-03T21:31:21.612Z,63.66
2022-11-03T21:33:48.469Z,64.75
2022-11-03T21:36:15.168Z,64.59
2022-11-03T21:38:41.855Z,64.58
2022-11-03T21:41:08.600Z,63.88
2022-11-03T21:43:35.224Z,63.45
2022-11-03T21:46:01.878Z,63.39
2022-11-03T21:48:28.518Z,63.61
2022-11-03T21:50:55.183Z,63.03
2022-11-03T21:53:21.833Z,62.89
2022-11-03T21:55:48.483Z,63.21
2022-11-03T21:58:15.175Z,62.72
2022-11-03T22:00:41.984Z,62.92
2022-11-03T22:03:09.141Z,62.74
2022-11-03T22:05:35.941Z,62.59
2022-11-03T22:08:02.822Z,62.79
2022-11-03T22:10:29.471Z,63.18
2022-11-03T22:12:56.285Z,63.13
2022-11-03T22:15:22.943Z,62.87
2022-11-03T22:17:49.565Z,62.67
2022-11-03T22:20:16.203Z,62.71
2022-11-03T22:22:42.822Z,63.32
2022-11-03T22:25:09.522Z,63.62
2022-11-03T22:27:36.286Z,63.23
2022-11-03T22:30:02.992Z,63.05
2022-11-03T22:32:29.644Z,63.03
2022-11-03T22:34:56.282Z,62.89
2022-11-03T22:37:22.933Z,62.96
2022-11-03T22:39:49.804Z,62.90
2022-11-03T22:42:16.527Z,62.82
2022-11-03T22:44:43.381Z,62.82
2022-11-03T22:47:11.330Z,63.19
2022-11-03T22:49:39.925Z,63.63
2022-11-03T22:52:06.676Z,63.53
2022-11-03T22:54:33.302Z,63.71
2022-11-03T22:56:59.953Z,63.68
2022-11-03T22:59:26.570Z,63.73
2022-11-03T23:01:53.352Z,64.40
2022-11-03T23:04:20.058Z,64.79
2022-11-03T23:06:46.712Z,65.12
2022-11-03T23:09:13.407Z,65.36
2022-11-03T23:11:40.094Z,65.45
2022-11-03T23:14:06.769Z,65.29
2022-11-03T23:16:33.623Z,64.75
2022-11-03T23:19:00.282Z,64.41
2022-11-03T23:21:26.909Z,64.03
2022-11-03T23:23:53.521Z,63.48
2022-11-03T23:26:20.189Z,63.25
2022-11-03T23:28:46.834Z,63.95
2022-11-03T23:31:13.457Z,63.92
2022-11-03T23:33:40.119Z,63.87
2022-11-03T23:36:06.764Z,63.91
2022-11-03T23:38:33.484Z,63.50
2022-11-03T23:41:00.162Z,63.70
2022-11-03T23:43:26.829Z,63.36
2022-11-03T23:45:53.522Z,63.68
2022-11-03T23:48:20.221Z,64.38
2022-11-03T23:50:46.961Z,64.92
2022-11-03T23:53:13.697Z,64.41
2022-11-03T23:55:40.570Z,65.71
2022-11-03T23:58:07.719Z,66.11
